createdAt,value
2023-03-27T00:01:16.236Z,3.75
2023-03-27T00:03:43.424Z,3.80
2023-03-27T00:06:16.936Z,3.73
2023-03-27T00:08:50.512Z,3.41
2023-03-27T00:11:17.819Z,3.36
2023-03-27T00:13:49.918Z,3.66
2023-03-27T00:16:19.548Z,3.52
2023-03-27T00:18:46.703Z,3.69
2023-03-27T00:21:14.070Z,3.73
2023-03-27T00:23:41.267Z,3.66
2023-03-27T00:26:08.013Z,3.60
2023-03-27T00:28:35.539Z,3.37
2023-03-27T00:31:02.686Z,3.48
2023-03-27T00:33:29.619Z,3.38
2023-03-27T00:35:56.568Z,3.59
2023-03-27T00:38:24.329Z,3.40
2023-03-27T00:40:54.411Z,3.18
2023-03-27T00:43:35.328Z,3.43
2023-03-27T00:46:16.899Z,3.53
2023-03-27T00:48:47.876Z,3.30
2023-03-27T00:51:16.419Z,2.90
2023-03-27T00:53:43.799Z,3.29
2023-03-27T00:56:11.099Z,3.22
2023-03-27T00:58:44.132Z,3.30
2023-03-27T01:01:14.465Z,3.04
2023-03-27T01:03:43.871Z,3.26
2023-03-27T01:06:13.966Z,3.13
2023-03-27T01:08:43.853Z,3.04
2023-03-27T01:11:44.194Z,3.02
2023-03-27T01:14:36.978Z,3.34
2023-03-27T01:17:12.940Z,3.38
2023-03-27T01:19:48.777Z,3.47
2023-03-27T01:22:34.026Z,3.40
2023-03-27T01:25:30.550Z,3.19
2023-03-27T01:28:30.053Z,2.87
2023-03-27T01:31:02.989Z,3.00
2023-03-27T01:33:48.218Z,3.18
2023-03-27T01:36:27.365Z,3.16
2023-03-27T01:39:05.086Z,2.77
2023-03-27T01:41:51.966Z,2.76
2023-03-27T01:44:43.776Z,3.06
2023-03-27T01:47:43.085Z,3.27
2023-03-27T01:50:27.178Z,3.18
2023-03-27T01:53:01.686Z,3.10
2023-03-27T01:55:33.138Z,3.00
2023-03-27T01:58:22.879Z,2.99
2023-03-27T02:00:56.463Z,2.96
2023-03-27T02:03:57.552Z,3.00
2023-03-27T02:06:30.123Z,2.86
2023-03-27T02:09:02.602Z,2.64
2023-03-27T02:11:36.475Z,2.66
2023-03-27T02:14:12.315Z,2.91
2023-03-27T02:16:46.139Z,2.81
2023-03-27T02:19:20.313Z,2.88
2023-03-27T02:21:49.692Z,2.90
2023-03-27T02:24:17.802Z,2.81
2023-03-27T02:26:45.976Z,2.90
2023-03-27T02:29:33.600Z,2.63
2023-03-27T02:32:04.304Z,2.34
2023-03-27T02:34:50.309Z,2.22
2023-03-27T02:37:32.206Z,2.31
2023-03-27T02:40:29.300Z,2.61
2023-03-27T02:43:17.135Z,2.38
2023-03-27T02:45:48.955Z,2.53
2023-03-27T02:48:39.534Z,1.89
2023-03-27T02:51:12.342Z,2.21
2023-03-27T02:53:47.131Z,2.39
2023-03-27T02:56:16.384Z,1.91
2023-03-27T02:58:50.359Z,1.63
2023-03-27T03:01:39.249Z,1.94
2023-03-27T03:04:29.937Z,2.13
2023-03-27T03:07:11.504Z,2.19
2023-03-27T03:09:40.462Z,1.78
2023-03-27T03:12:09.058Z,1.90
2023-03-27T03:14:44.091Z,2.13
2023-03-27T03:17:12.351Z,2.35
2023-03-27T03:19:39.014Z,2.22
2023-03-27T03:22:07.358Z,1.52
2023-03-27T03:24:35.641Z,1.73
2023-03-27T03:27:04.421Z,1.78
2023-03-27T03:29:36.948Z,1.87
2023-03-27T03:32:13.313Z,2.04
2023-03-27T03:34:46.507Z,1.89
2023-03-27T03:37:14.829Z,2.02
2023-03-27T03:39:41.418Z,1.94
2023-03-27T03:42:08.114Z,2.33
2023-03-27T03:44:37.085Z,2.49
2023-03-27T03:47:22.507Z,2.55
2023-03-27T03:49:50.019Z,2.12
2023-03-27T03:52:16.718Z,2.06
2023-03-27T03:54:44.365Z,2.01
2023-03-27T03:57:12.775Z,2.26
2023-03-27T03:59:39.944Z,2.14
2023-03-27T04:02:30.467Z,2.21
2023-03-27T04:05:08.836Z,2.38
2023-03-27T04:07:37.256Z,2.31
2023-03-27T04:10:22.102Z,2.35
2023-03-27T04:12:49.603Z,2.48
2023-03-27T04:15:43.328Z,2.61
2023-03-27T04:18:15.347Z,2.40
2023-03-27T04:20:42.732Z,2.25
2023-03-27T04:23:14.151Z,2.08
2023-03-27T04:25:41.295Z,2.05
2023-03-27T04:28:16.352Z,2.36
2023-03-27T04:30:50.622Z,2.46
2023-03-27T04:33:46.288Z,2.53
2023-03-27T04:36:34.547Z,2.45
2023-03-27T04:39:08.670Z,2.08
2023-03-27T04:41:35.216Z,2.35
2023-03-27T04:44:01.974Z,2.42
2023-03-27T04:46:30.061Z,2.38
2023-03-27T04:49:02.363Z,2.34
2023-03-27T04:51:51.791Z,2.28
2023-03-27T04:54:22.695Z,2.29
2023-03-27T04:56:50.607Z,2.18
2023-03-27T04:59:17.285Z,2.35
2023-03-27T05:01:51.500Z,1.64
2023-03-27T05:04:28.914Z,2.23
2023-03-27T05:07:07.428Z,2.37
2023-03-27T05:09:34.007Z,2.14
2023-03-27T05:12:00.845Z,2.08
2023-03-27T05:14:27.716Z,1.97
2023-03-27T05:16:57.640Z,2.26
2023-03-27T05:19:26.798Z,2.33
2023-03-27T05:21:58.692Z,2.16
2023-03-27T05:24:26.582Z,2.17
2023-03-27T05:26:53.560Z,1.86
2023-03-27T05:29:20.159Z,1.88
2023-03-27T05:31:55.348Z,1.94
2023-03-27T05:34:38.730Z,1.83
2023-03-27T05:37:09.174Z,1.63
2023-03-27T05:39:53.978Z,1.58
2023-03-27T05:42:20.572Z,2.11
2023-03-27T05:44:47.123Z,2.02
2023-03-27T05:47:15.249Z,1.96
2023-03-27T05:49:41.943Z,2.08
2023-03-27T05:52:11.933Z,1.93
2023-03-27T05:54:38.504Z,2.21
2023-03-27T05:57:08.998Z,2.13
2023-03-27T05:59:37.760Z,1.99
2023-03-27T06:02:21.502Z,1.97
2023-03-27T06:04:58.990Z,2.08
2023-03-27T06:07:43.155Z,2.02
2023-03-27T06:10:13.692Z,2.15
2023-03-27T06:12:45.960Z,1.95
2023-03-27T06:15:28.938Z,1.91
2023-03-27T06:18:16.339Z,2.07
2023-03-27T06:20:44.092Z,2.12
2023-03-27T06:23:11.917Z,2.03
2023-03-27T06:25:39.452Z,2.17
2023-03-27T06:28:09.355Z,2.31
2023-03-27T06:30:42.194Z,2.51
2023-03-27T06:33:27.361Z,2.13
2023-03-27T06:36:00.570Z,2.27
2023-03-27T06:38:33.323Z,2.13
2023-03-27T06:41:01.898Z,2.24
2023-03-27T06:43:47.360Z,2.27
2023-03-27T06:46:38.695Z,2.41
2023-03-27T06:49:47.814Z,2.41
2023-03-27T06:52:20.446Z,2.31
2023-03-27T06:54:47.590Z,2.50
2023-03-27T06:57:15.339Z,2.57
2023-03-27T07:00:22.554Z,2.58
2023-03-27T07:03:12.464Z,2.67
2023-03-27T07:06:08.472Z,2.61
2023-03-27T07:08:49.019Z,2.69
2023-03-27T07:11:16.530Z,3.02
2023-03-27T07:13:51.591Z,3.12
2023-03-27T07:16:25.012Z,3.36
2023-03-27T07:18:51.982Z,3.28
2023-03-27T07:21:18.813Z,3.21
2023-03-27T07:23:46.253Z,3.38
2023-03-27T07:26:17.007Z,3.76
2023-03-27T07:28:52.401Z,3.29
2023-03-27T07:31:35.125Z,3.37
2023-03-27T07:34:08.398Z,3.30
2023-03-27T07:36:54.516Z,3.53
2023-03-27T07:39:21.908Z,3.47
2023-03-27T07:41:48.536Z,3.46
2023-03-27T07:44:26.262Z,3.42
2023-03-27T07:47:01.040Z,3.51
2023-03-27T07:49:39.205Z,3.82
2023-03-27T07:52:10.304Z,3.89
2023-03-27T07:54:48.806Z,3.90
2023-03-27T07:57:17.677Z,3.99
2023-03-27T07:59:50.151Z,3.94
2023-03-27T08:02:25.058Z,4.07
2023-03-27T08:04:52.621Z,4.13
2023-03-27T08:07:22.596Z,4.32
2023-03-27T08:09:49.268Z,4.31
2023-03-27T08:12:15.901Z,4.54
2023-03-27T08:14:50.705Z,4.84
2023-03-27T08:17:27.496Z,4.47
2023-03-27T08:19:55.873Z,4.56
2023-03-27T08:22:24.594Z,4.40
2023-03-27T08:25:10.363Z,4.56
2023-03-27T08:27:49.173Z,4.78
2023-03-27T08:30:19.645Z,4.62
2023-03-27T08:33:03.540Z,4.78
2023-03-27T08:35:32.519Z,4.85
2023-03-27T08:38:13.801Z,5.21
2023-03-27T08:41:03.794Z,4.83
2023-03-27T08:43:41.412Z,5.21
2023-03-27T08:46:13.902Z,5.28
2023-03-27T08:48:58.810Z,4.96
2023-03-27T08:51:34.309Z,5.04
2023-03-27T08:54:16.798Z,5.08
2023-03-27T08:56:45.524Z,5.25
2023-03-27T08:59:17.339Z,5.22
2023-03-27T09:01:47.740Z,5.22
2023-03-27T09:04:41.879Z,5.41
2023-03-27T09:07:27.995Z,5.44
2023-03-27T09:10:26.076Z,5.34
2023-03-27T09:13:24.448Z,5.60
2023-03-27T09:16:30.886Z,5.99
2023-03-27T09:18:59.695Z,6.00
2023-03-27T09:21:37.507Z,5.96
2023-03-27T09:24:22.243Z,6.32
2023-03-27T09:27:32.942Z,6.25
2023-03-27T09:30:38.940Z,5.84
2023-03-27T09:33:12.345Z,6.31
2023-03-27T09:35:42.223Z,6.54
2023-03-27T09:38:37.018Z,6.32
2023-03-27T09:41:13.349Z,6.35
2023-03-27T09:43:49.175Z,6.52
2023-03-27T09:46:20.084Z,6.72
2023-03-27T09:49:00.139Z,6.82
2023-03-27T09:51:48.414Z,6.98
2023-03-27T09:54:25.285Z,6.86
2023-03-27T09:57:03.471Z,7.01
2023-03-27T09:59:39.071Z,7.21
2023-03-27T10:02:21.131Z,7.45
2023-03-27T10:05:28.156Z,7.71
2023-03-27T10:08:01.400Z,7.07
2023-03-27T10:10:58.234Z,6.94
2023-03-27T10:13:44.693Z,7.06
2023-03-27T10:16:17.887Z,7.11
2023-03-27T10:19:00.097Z,7.13
2023-03-27T10:21:39.836Z,7.17
2023-03-27T10:24:17.314Z,6.90
2023-03-27T10:27:00.121Z,7.30
2023-03-27T10:29:27.266Z,7.71
2023-03-27T10:31:56.287Z,7.34
2023-03-27T10:34:54.333Z,7.10
2023-03-27T10:37:32.483Z,7.35
2023-03-27T10:40:19.119Z,7.45
2023-03-27T10:42:49.171Z,7.06
2023-03-27T10:45:18.189Z,6.65
2023-03-27T10:47:49.147Z,6.97
2023-03-27T10:50:23.119Z,7.19
2023-03-27T10:53:02.320Z,7.33
2023-03-27T10:55:53.788Z,7.65
2023-03-27T10:58:23.624Z,7.12
2023-03-27T11:01:12.229Z,7.48
2023-03-27T11:04:03.325Z,8.02
2023-03-27T11:06:41.690Z,8.30
2023-03-27T11:09:34.220Z,8.06
2023-03-27T11:12:10.676Z,7.84
2023-03-27T11:15:15.409Z,7.58
2023-03-27T11:18:02.638Z,6.96
2023-03-27T11:20:40.028Z,6.95
2023-03-27T11:23:54.496Z,7.23
2023-03-27T11:26:25.243Z,7.38
2023-03-27T11:29:04.119Z,7.32
2023-03-27T11:31:48.174Z,7.58
2023-03-27T11:34:48.753Z,7.48
2023-03-27T11:38:06.228Z,7.29
2023-03-27T11:40:45.668Z,7.73
2023-03-27T11:43:13.413Z,8.00
2023-03-27T11:45:55.811Z,8.19
2023-03-27T11:48:43.504Z,8.21
2023-03-27T11:51:22.363Z,7.74
2023-03-27T11:54:02.225Z,7.81
2023-03-27T11:56:57.999Z,8.60
2023-03-27T12:00:01.655Z,8.71
2023-03-27T12:02:57.741Z,8.74
2023-03-27T12:05:52.430Z,8.84
2023-03-27T12:08:40.893Z,9.22
2023-03-27T12:11:11.457Z,8.99
2023-03-27T12:14:08.912Z,9.05
2023-03-27T12:17:05.349Z,8.93
2023-03-27T12:20:06.904Z,8.49
2023-03-27T12:22:56.555Z,8.71
2023-03-27T12:26:14.070Z,9.19
2023-03-27T12:29:03.016Z,9.08
2023-03-27T12:32:01.669Z,8.91
2023-03-27T12:34:51.200Z,9.45
2023-03-27T12:37:24.396Z,9.47
2023-03-27T12:39:59.004Z,8.91
2023-03-27T12:42:51.874Z,8.93
2023-03-27T12:45:29.028Z,8.77
2023-03-27T12:48:18.250Z,8.90
2023-03-27T12:50:55.995Z,8.23
2023-03-27T12:53:26.930Z,8.14
2023-03-27T12:56:12.536Z,8.10
2023-03-27T12:58:41.185Z,7.68
2023-03-27T13:01:23.379Z,8.31
2023-03-27T13:04:16.979Z,9.65
2023-03-27T13:06:53.315Z,9.36
2023-03-27T13:09:56.430Z,9.75
2023-03-27T13:12:33.010Z,9.60
2023-03-27T13:15:06.968Z,8.89
2023-03-27T13:18:21.482Z,8.79
2023-03-27T13:21:08.498Z,8.40
2023-03-27T13:24:02.602Z,7.29
2023-03-27T13:27:25.514Z,6.60
2023-03-27T13:29:53.797Z,6.49
2023-03-27T13:32:40.221Z,6.83
2023-03-27T13:35:22.057Z,6.99
2023-03-27T13:37:48.914Z,7.22
2023-03-27T13:40:23.269Z,6.77
2023-03-27T13:43:10.299Z,4.83
2023-03-27T13:45:46.659Z,4.95
2023-03-27T13:48:58.528Z,4.37
2023-03-27T13:51:51.848Z,5.02
2023-03-27T13:54:38.232Z,5.08
2023-03-27T13:57:12.373Z,5.06
2023-03-27T14:00:16.747Z,5.56
2023-03-27T14:03:05.461Z,5.82
2023-03-27T14:06:00.907Z,6.65
2023-03-27T14:09:02.265Z,6.75
2023-03-27T14:11:39.881Z,7.34
2023-03-27T14:14:19.859Z,7.74
2023-03-27T14:17:10.926Z,8.52
2023-03-27T14:19:40.804Z,8.84
2023-03-27T14:22:40.437Z,8.37
2023-03-27T14:25:16.401Z,8.44
2023-03-27T14:27:54.558Z,8.72
2023-03-27T14:30:29.090Z,7.80
2023-03-27T14:36:19.604Z,7.66
2023-03-27T14:38:48.720Z,7.75
2023-03-27T14:41:26.660Z,8.70
2023-03-27T14:43:59.362Z,8.21
2023-03-27T14:46:26.824Z,7.94
2023-03-27T14:48:59.172Z,7.49
2023-03-27T14:51:37.180Z,7.16
2023-03-27T14:54:26.447Z,6.67
2023-03-27T14:57:04.240Z,6.68
2023-03-27T14:59:42.764Z,7.23
2023-03-27T15:02:21.377Z,7.40
2023-03-27T15:04:50.195Z,8.12
2023-03-27T15:07:20.308Z,7.81
2023-03-27T15:10:26.090Z,7.45
2023-03-27T15:13:26.644Z,7.80
2023-03-27T15:15:59.712Z,7.02
2023-03-27T15:18:49.845Z,6.73
2023-03-27T15:21:34.546Z,6.88
2023-03-27T15:24:14.450Z,6.67
2023-03-27T15:26:41.266Z,7.42
2023-03-27T15:29:29.357Z,7.66
2023-03-27T15:31:57.183Z,7.19
2023-03-27T15:34:37.971Z,7.92
2023-03-27T15:37:13.005Z,7.68
2023-03-27T15:40:02.049Z,7.75
2023-03-27T15:42:45.951Z,7.80
2023-03-27T15:45:16.879Z,7.92
2023-03-27T15:47:45.430Z,7.77
2023-03-27T15:50:27.909Z,8.08
2023-03-27T15:52:58.039Z,7.77
2023-03-27T15:55:44.925Z,8.14
2023-03-27T15:58:21.139Z,7.66
2023-03-27T16:00:49.209Z,7.61
2023-03-27T16:03:21.207Z,7.64
2023-03-27T16:05:49.931Z,7.45
2023-03-27T16:08:35.628Z,7.80
2023-03-27T16:11:02.858Z,7.51
2023-03-27T16:13:36.034Z,7.64
2023-03-27T16:16:07.040Z,7.29
2023-03-27T16:18:35.763Z,6.69
2023-03-27T16:21:11.120Z,6.65
2023-03-27T16:23:37.779Z,6.56
2023-03-27T16:26:06.777Z,6.82
2023-03-27T16:28:33.903Z,6.69
2023-03-27T16:31:10.744Z,6.81
2023-03-27T16:33:37.479Z,6.75
2023-03-27T16:36:04.589Z,6.59
2023-03-27T16:38:33.503Z,6.48
2023-03-27T16:41:01.472Z,6.30
2023-03-27T16:43:28.043Z,6.53
2023-03-27T16:45:55.744Z,6.38
2023-03-27T16:48:23.026Z,5.84
2023-03-27T16:50:49.558Z,6.13
2023-03-27T16:53:16.319Z,5.95
2023-03-27T16:55:44.691Z,5.82
2023-03-27T16:58:11.614Z,4.82
2023-03-27T17:00:38.225Z,4.80
2023-03-27T17:03:04.873Z,4.46
2023-03-27T17:05:34.280Z,4.56
2023-03-27T17:08:02.037Z,4.91
2023-03-27T17:10:30.174Z,4.94
2023-03-27T17:12:56.863Z,4.76
2023-03-27T17:15:23.490Z,4.58
2023-03-27T17:17:50.509Z,4.68
2023-03-27T17:20:17.277Z,4.66
2023-03-27T17:22:45.424Z,4.85
2023-03-27T17:25:12.284Z,5.05
2023-03-27T17:27:39.007Z,4.54
2023-03-27T17:30:06.736Z,4.64
2023-03-27T17:32:33.456Z,4.61
2023-03-27T17:35:00.093Z,4.72
2023-03-27T17:37:27.306Z,4.92
2023-03-27T17:39:55.289Z,4.90
2023-03-27T17:42:22.226Z,4.74
2023-03-27T17:44:48.883Z,5.00
2023-03-27T17:47:15.589Z,4.85
2023-03-27T17:49:43.144Z,5.07
2023-03-27T17:52:11.917Z,5.05
2023-03-27T17:54:38.936Z,5.27
2023-03-27T17:57:05.893Z,4.74
2023-03-27T17:59:32.540Z,4.69
2023-03-27T18:01:59.386Z,4.65
2023-03-27T18:04:26.383Z,4.62
2023-03-27T18:06:53.102Z,4.82
2023-03-27T18:09:19.812Z,4.88
2023-03-27T18:11:47.031Z,4.61
2023-03-27T18:14:13.795Z,5.00
2023-03-27T18:16:40.502Z,5.13
2023-03-27T18:19:08.764Z,5.20
2023-03-27T18:21:36.002Z,5.07
2023-03-27T18:24:02.918Z,5.23
2023-03-27T18:26:29.682Z,5.30
2023-03-27T18:28:57.547Z,5.34
2023-03-27T18:31:24.591Z,5.03
2023-03-27T18:33:51.466Z,5.20
2023-03-27T18:36:18.087Z,5.23
2023-03-27T18:38:45.966Z,5.14
2023-03-27T18:41:13.392Z,5.28
2023-03-27T18:43:39.958Z,5.28
2023-03-27T18:46:08.257Z,5.22
2023-03-27T18:48:35.708Z,5.05
2023-03-27T18:51:04.955Z,4.98
2023-03-27T18:53:32.202Z,4.91
2023-03-27T18:55:59.800Z,4.80
2023-03-27T18:58:28.151Z,4.72
2023-03-27T19:00:55.672Z,4.58
2023-03-27T19:03:24.520Z,4.46
2023-03-27T19:05:52.614Z,4.49
2023-03-27T19:08:21.084Z,4.48
2023-03-27T19:10:47.654Z,4.58
2023-03-27T19:13:22.781Z,4.66
2023-03-27T19:16:21.230Z,4.40
2023-03-27T19:19:06.320Z,4.46
2023-03-27T19:21:59.178Z,4.41
2023-03-27T19:24:42.282Z,4.69
2023-03-27T19:27:23.618Z,4.30
2023-03-27T19:29:52.063Z,4.19
2023-03-27T19:32:18.695Z,4.00
2023-03-27T19:34:45.258Z,3.83
2023-03-27T19:37:12.030Z,3.67
2023-03-27T19:39:38.639Z,3.89
2023-03-27T19:42:05.566Z,4.02
2023-03-27T19:44:35.419Z,3.97
2023-03-27T19:47:03.658Z,4.09
2023-03-27T19:49:30.494Z,4.12
2023-03-27T19:52:20.354Z,3.80
2023-03-27T19:54:47.170Z,4.05
2023-03-27T19:57:14.081Z,3.89
2023-03-27T19:59:40.709Z,4.06
2023-03-27T20:02:07.550Z,4.21
2023-03-27T20:04:34.163Z,4.18
2023-03-27T20:07:02.137Z,4.10
2023-03-27T20:09:28.947Z,4.11
2023-03-27T20:11:56.915Z,4.00
2023-03-27T20:14:24.173Z,4.18
2023-03-27T20:16:51.052Z,4.20
2023-03-27T20:19:18.928Z,4.28
2023-03-27T20:21:46.682Z,4.30
2023-03-27T20:24:17.149Z,4.14
2023-03-27T20:26:52.339Z,4.37
2023-03-27T20:29:23.708Z,4.38
2023-03-27T20:31:50.459Z,4.19
2023-03-27T20:34:19.244Z,4.00
2023-03-27T20:36:46.299Z,4.37
2023-03-27T20:39:38.711Z,4.17
2023-03-27T20:42:07.567Z,4.13
2023-03-27T20:44:37.095Z,3.92
2023-03-27T20:47:10.718Z,4.06
2023-03-27T20:49:44.420Z,4.13
2023-03-27T20:52:14.041Z,3.81
2023-03-27T20:54:40.638Z,3.91
2023-03-27T20:57:11.119Z,3.80
2023-03-27T20:59:37.897Z,4.03
2023-03-27T21:02:04.957Z,3.99
2023-03-27T21:04:31.835Z,4.16
2023-03-27T21:06:58.941Z,4.05
2023-03-27T21:09:26.950Z,3.78
2023-03-27T21:11:55.248Z,3.85
2023-03-27T21:14:22.020Z,3.86
2023-03-27T21:16:48.689Z,3.86
2023-03-27T21:19:15.838Z,3.90
2023-03-27T21:21:44.581Z,4.04
2023-03-27T21:24:11.296Z,3.99
2023-03-27T21:26:37.855Z,3.80
2023-03-27T21:29:05.036Z,3.85
2023-03-27T21:31:31.793Z,3.84
2023-03-27T21:33:58.459Z,4.23
2023-03-27T21:36:27.966Z,4.10
2023-03-27T21:38:56.431Z,4.12
2023-03-27T21:41:23.455Z,3.99
2023-03-27T21:43:50.709Z,3.96
2023-03-27T21:46:17.451Z,4.11
2023-03-27T21:48:48.817Z,4.02
2023-03-27T21:51:15.542Z,4.08
2023-03-27T21:53:42.412Z,4.02
2023-03-27T21:56:09.112Z,3.80
2023-03-27T21:58:35.851Z,3.94
2023-03-27T22:01:02.574Z,3.81
2023-03-27T22:03:30.116Z,4.00
2023-03-27T22:08:37.429Z,3.80
2023-03-27T22:11:04.216Z,3.76
2023-03-27T22:13:31.109Z,3.95
2023-03-27T22:15:58.058Z,3.67
2023-03-27T22:18:25.087Z,3.68
2023-03-27T22:20:51.726Z,3.87
2023-03-27T22:23:18.270Z,3.75
2023-03-27T22:25:54.622Z,3.64
2023-03-27T22:28:21.272Z,3.86
2023-03-27T22:30:47.992Z,3.80
2023-03-27T22:33:14.546Z,3.74
2023-03-27T22:35:47.931Z,3.70
2023-03-27T22:38:15.224Z,3.87
2023-03-27T22:40:42.243Z,3.77
2023-03-27T22:43:08.806Z,3.65
2023-03-27T22:45:36.036Z,3.32
2023-03-27T22:48:02.761Z,3.51
2023-03-27T22:50:29.327Z,3.41
2023-03-27T22:52:56.128Z,3.60
2023-03-27T22:55:22.729Z,3.43
2023-03-27T22:57:49.310Z,3.71
2023-03-27T23:00:16.765Z,3.69
2023-03-27T23:02:43.402Z,3.53
2023-03-27T23:05:10.658Z,3.03
2023-03-27T23:07:37.232Z,3.47
2023-03-27T23:10:04.028Z,3.32
2023-03-27T23:12:30.663Z,3.39
2023-03-27T23:14:57.268Z,3.49
2023-03-27T23:17:23.874Z,3.54
2023-03-27T23:19:50.845Z,3.38
2023-03-27T23:22:17.433Z,3.46
2023-03-27T23:24:44.124Z,3.52
2023-03-27T23:27:10.830Z,3.65
2023-03-27T23:29:37.452Z,3.51
2023-03-27T23:32:04.206Z,3.71
2023-03-27T23:34:30.913Z,3.50
2023-03-27T23:36:57.550Z,3.74
2023-03-27T23:39:24.204Z,3.68
2023-03-27T23:41:50.898Z,3.54
2023-03-27T23:44:17.589Z,3.63
2023-03-27T23:46:44.160Z,3.34
2023-03-27T23:49:12.780Z,3.52
2023-03-27T23:51:39.377Z,3.63
2023-03-27T23:54:06.068Z,3.75
2023-03-27T23:56:32.652Z,3.78
2023-03-27T23:58:59.310Z,3.70
